sensor_id;sensor_type;location;lat;lon;timestamp;P1;durP1;ratioP1;P2;durP2;ratioP2
12925;SDS011;6529;50.566;9.774;2022-11-20T00:02:22;23.93;;;12.90;;
12925;SDS011;6529;50.566;9.774;2022-11-20T00:04:48;22.57;;;12.87;;
12925;SDS011;6529;50.566;9.774;2022-11-20T00:07:14;23.13;;;12.33;;
12925;SDS011;6529;50.566;9.774;2022-11-20T00:09:39;24.17;;;13.03;;
12925;SDS011;6529;50.566;9.774;2022-11-20T00:12:05;22.73;;;12.53;;
12925;SDS011;6529;50.566;9.774;2022-11-20T00:14:31;25.67;;;13.53;;
12925;SDS011;6529;50.566;9.774;2022-11-20T00:16:56;22.20;;;12.53;;
12925;SDS011;6529;50.566;9.774;2022-11-20T00:19:22;23.50;;;13.07;;
12925;SDS011;6529;50.566;9.774;2022-11-20T00:21:47;23.17;;;12.13;;
12925;SDS011;6529;50.566;9.774;2022-11-20T00:24:16;22.93;;;12.47;;
12925;SDS011;6529;50.566;9.774;2022-11-20T00:26:41;24.07;;;12.53;;
12925;SDS011;6529;50.566;9.774;2022-11-20T00:29:08;23.63;;;12.87;;
12925;SDS011;6529;50.566;9.774;2022-11-20T00:31:35;23.40;;;12.80;;
12925;SDS011;6529;50.566;9.774;2022-11-20T00:34:01;24.77;;;12.80;;
12925;SDS011;6529;50.566;9.774;2022-11-20T00:36:27;21.40;;;12.10;;
12925;SDS011;6529;50.566;9.774;2022-11-20T00:38:54;22.83;;;12.80;;
12925;SDS011;6529;50.566;9.774;2022-11-20T00:41:21;24.23;;;13.17;;
12925;SDS011;6529;50.566;9.774;2022-11-20T00:43:47;22.83;;;13.07;;
12925;SDS011;6529;50.566;9.774;2022-11-20T00:46:17;21.27;;;12.67;;
12925;SDS011;6529;50.566;9.774;2022-11-20T00:48:44;29.47;;;14.03;;
12925;SDS011;6529;50.566;9.774;2022-11-20T00:51:11;28.10;;;14.30;;
12925;SDS011;6529;50.566;9.774;2022-11-20T00:53:41;25.83;;;13.40;;
12925;SDS011;6529;50.566;9.774;2022-11-20T00:56:09;25.70;;;13.80;;
12925;SDS011;6529;50.566;9.774;2022-11-20T00:58:37;26.67;;;14.10;;
12925;SDS011;6529;50.566;9.774;2022-11-20T01:01:08;27.63;;;13.67;;
12925;SDS011;6529;50.566;9.774;2022-11-20T01:03:37;24.63;;;13.30;;
12925;SDS011;6529;50.566;9.774;2022-11-20T01:06:11;27.63;;;14.00;;
12925;SDS011;6529;50.566;9.774;2022-11-20T01:08:40;25.60;;;12.93;;
12925;SDS011;6529;50.566;9.774;2022-11-20T01:11:08;25.67;;;13.53;;
12925;SDS011;6529;50.566;9.774;2022-11-20T01:13:36;25.03;;;14.27;;
12925;SDS011;6529;50.566;9.774;2022-11-20T01:18:40;24.67;;;12.60;;
12925;SDS011;6529;50.566;9.774;2022-11-20T01:21:09;25.00;;;12.87;;
12925;SDS011;6529;50.566;9.774;2022-11-20T01:23:37;26.13;;;13.43;;
12925;SDS011;6529;50.566;9.774;2022-11-20T01:26:05;23.57;;;12.60;;
12925;SDS011;6529;50.566;9.774;2022-11-20T01:28:33;22.63;;;12.57;;
12925;SDS011;6529;50.566;9.774;2022-11-20T01:30:59;23.07;;;12.10;;
12925;SDS011;6529;50.566;9.774;2022-11-20T01:33:25;23.90;;;13.03;;
12925;SDS011;6529;50.566;9.774;2022-11-20T01:35:51;22.57;;;12.57;;
12925;SDS011;6529;50.566;9.774;2022-11-20T01:38:17;25.20;;;13.27;;
12925;SDS011;6529;50.566;9.774;2022-11-20T01:40:45;24.17;;;12.47;;
12925;SDS011;6529;50.566;9.774;2022-11-20T01:43:18;22.33;;;12.43;;
12925;SDS011;6529;50.566;9.774;2022-11-20T01:48:36;24.50;;;12.77;;
12925;SDS011;6529;50.566;9.774;2022-11-20T01:51:03;21.77;;;11.73;;
12925;SDS011;6529;50.566;9.774;2022-11-20T01:53:32;21.30;;;12.23;;
12925;SDS011;6529;50.566;9.774;2022-11-20T01:56:01;21.47;;;11.83;;
12925;SDS011;6529;50.566;9.774;2022-11-20T01:58:32;20.60;;;11.57;;
12925;SDS011;6529;50.566;9.774;2022-11-20T02:01:00;20.63;;;11.17;;
12925;SDS011;6529;50.566;9.774;2022-11-20T02:03:27;23.33;;;11.50;;
12925;SDS011;6529;50.566;9.774;2022-11-20T02:08:44;22.77;;;12.27;;
12925;SDS011;6529;50.566;9.774;2022-11-20T02:11:09;22.27;;;12.30;;
12925;SDS011;6529;50.566;9.774;2022-11-20T02:13:35;20.57;;;11.30;;
12925;SDS011;6529;50.566;9.774;2022-11-20T02:18:42;19.13;;;10.90;;
12925;SDS011;6529;50.566;9.774;2022-11-20T02:26:47;19.57;;;10.37;;
12925;SDS011;6529;50.566;9.774;2022-11-20T02:29:22;21.87;;;11.53;;
12925;SDS011;6529;50.566;9.774;2022-11-20T02:31:50;20.77;;;11.60;;
12925;SDS011;6529;50.566;9.774;2022-11-20T02:34:18;21.40;;;11.53;;
12925;SDS011;6529;50.566;9.774;2022-11-20T02:36:44;20.20;;;11.27;;
12925;SDS011;6529;50.566;9.774;2022-11-20T02:39:11;20.63;;;11.30;;
12925;SDS011;6529;50.566;9.774;2022-11-20T02:41:38;21.70;;;11.87;;
12925;SDS011;6529;50.566;9.774;2022-11-20T02:44:04;21.43;;;11.40;;
12925;SDS011;6529;50.566;9.774;2022-11-20T02:46:30;22.63;;;11.60;;
12925;SDS011;6529;50.566;9.774;2022-11-20T02:48:57;20.30;;;10.90;;
12925;SDS011;6529;50.566;9.774;2022-11-20T02:51:23;20.53;;;11.73;;
12925;SDS011;6529;50.566;9.774;2022-11-20T02:53:48;20.10;;;11.33;;
12925;SDS011;6529;50.566;9.774;2022-11-20T02:56:14;20.43;;;11.60;;
12925;SDS011;6529;50.566;9.774;2022-11-20T02:58:40;21.87;;;11.20;;
12925;SDS011;6529;50.566;9.774;2022-11-20T03:01:06;23.33;;;11.93;;
12925;SDS011;6529;50.566;9.774;2022-11-20T03:03:31;20.35;;;11.05;;
12925;SDS011;6529;50.566;9.774;2022-11-20T03:05:58;19.33;;;11.20;;
12925;SDS011;6529;50.566;9.774;2022-11-20T03:08:24;21.30;;;11.37;;
12925;SDS011;6529;50.566;9.774;2022-11-20T03:10:50;18.17;;;10.47;;
12925;SDS011;6529;50.566;9.774;2022-11-20T03:13:15;20.63;;;10.63;;
12925;SDS011;6529;50.566;9.774;2022-11-20T03:15:41;20.10;;;10.43;;
12925;SDS011;6529;50.566;9.774;2022-11-20T03:18:06;17.17;;;9.73;;
12925;SDS011;6529;50.566;9.774;2022-11-20T03:20:32;19.23;;;10.60;;
12925;SDS011;6529;50.566;9.774;2022-11-20T03:22:58;19.43;;;10.70;;
12925;SDS011;6529;50.566;9.774;2022-11-20T03:25:24;18.33;;;10.27;;
12925;SDS011;6529;50.566;9.774;2022-11-20T03:27:50;19.20;;;10.53;;
12925;SDS011;6529;50.566;9.774;2022-11-20T03:30:15;20.30;;;10.40;;
12925;SDS011;6529;50.566;9.774;2022-11-20T03:32:41;18.40;;;10.40;;
12925;SDS011;6529;50.566;9.774;2022-11-20T03:35:07;18.80;;;11.13;;
12925;SDS011;6529;50.566;9.774;2022-11-20T03:37:33;17.90;;;10.53;;
12925;SDS011;6529;50.566;9.774;2022-11-20T03:39:58;19.07;;;10.90;;
12925;SDS011;6529;50.566;9.774;2022-11-20T03:42:24;19.93;;;10.83;;
12925;SDS011;6529;50.566;9.774;2022-11-20T03:45:08;19.70;;;10.97;;
12925;SDS011;6529;50.566;9.774;2022-11-20T03:47:34;20.77;;;11.37;;
12925;SDS011;6529;50.566;9.774;2022-11-20T03:49:59;21.33;;;12.27;;
12925;SDS011;6529;50.566;9.774;2022-11-20T03:52:25;19.97;;;11.77;;
12925;SDS011;6529;50.566;9.774;2022-11-20T03:54:50;19.63;;;11.17;;
12925;SDS011;6529;50.566;9.774;2022-11-20T03:57:16;20.73;;;11.40;;
12925;SDS011;6529;50.566;9.774;2022-11-20T03:59:41;23.10;;;12.07;;
12925;SDS011;6529;50.566;9.774;2022-11-20T04:02:07;20.07;;;11.03;;
12925;SDS011;6529;50.566;9.774;2022-11-20T04:04:32;20.30;;;11.70;;
12925;SDS011;6529;50.566;9.774;2022-11-20T04:06:58;23.27;;;12.23;;
12925;SDS011;6529;50.566;9.774;2022-11-20T04:09:23;19.17;;;11.83;;
12925;SDS011;6529;50.566;9.774;2022-11-20T04:11:49;23.60;;;11.93;;
12925;SDS011;6529;50.566;9.774;2022-11-20T04:14:15;19.87;;;11.37;;
12925;SDS011;6529;50.566;9.774;2022-11-20T04:16:41;20.60;;;11.33;;
12925;SDS011;6529;50.566;9.774;2022-11-20T04:19:11;21.53;;;11.60;;
12925;SDS011;6529;50.566;9.774;2022-11-20T04:21:38;21.40;;;11.77;;
12925;SDS011;6529;50.566;9.774;2022-11-20T04:24:04;22.03;;;11.93;;
12925;SDS011;6529;50.566;9.774;2022-11-20T04:26:30;19.27;;;10.23;;
12925;SDS011;6529;50.566;9.774;2022-11-20T04:28:56;19.63;;;10.80;;
12925;SDS011;6529;50.566;9.774;2022-11-20T04:31:23;19.13;;;10.40;;
12925;SDS011;6529;50.566;9.774;2022-11-20T04:33:50;16.43;;;9.83;;
12925;SDS011;6529;50.566;9.774;2022-11-20T04:36:20;17.13;;;9.63;;
12925;SDS011;6529;50.566;9.774;2022-11-20T04:38:54;19.10;;;10.23;;
12925;SDS011;6529;50.566;9.774;2022-11-20T04:41:26;17.90;;;9.97;;
12925;SDS011;6529;50.566;9.774;2022-11-20T04:43:55;18.13;;;10.37;;
12925;SDS011;6529;50.566;9.774;2022-11-20T04:46:25;18.93;;;10.30;;
12925;SDS011;6529;50.566;9.774;2022-11-20T04:48:51;19.27;;;10.63;;
12925;SDS011;6529;50.566;9.774;2022-11-20T04:51:17;21.93;;;10.90;;
12925;SDS011;6529;50.566;9.774;2022-11-20T04:53:43;20.00;;;10.30;;
12925;SDS011;6529;50.566;9.774;2022-11-20T04:56:09;17.87;;;10.47;;
12925;SDS011;6529;50.566;9.774;2022-11-20T04:58:36;20.47;;;11.20;;
12925;SDS011;6529;50.566;9.774;2022-11-20T05:01:10;20.43;;;11.77;;
12925;SDS011;6529;50.566;9.774;2022-11-20T05:03:37;18.20;;;10.30;;
12925;SDS011;6529;50.566;9.774;2022-11-20T05:06:04;18.17;;;10.97;;
12925;SDS011;6529;50.566;9.774;2022-11-20T05:08:31;19.57;;;10.57;;
12925;SDS011;6529;50.566;9.774;2022-11-20T05:11:02;19.73;;;11.23;;
12925;SDS011;6529;50.566;9.774;2022-11-20T05:13:44;19.87;;;10.53;;
12925;SDS011;6529;50.566;9.774;2022-11-20T05:16:15;20.13;;;11.27;;
12925;SDS011;6529;50.566;9.774;2022-11-20T05:18:42;21.13;;;11.67;;
12925;SDS011;6529;50.566;9.774;2022-11-20T05:21:08;19.63;;;10.90;;
12925;SDS011;6529;50.566;9.774;2022-11-20T05:23:35;18.83;;;11.07;;
12925;SDS011;6529;50.566;9.774;2022-11-20T05:26:01;21.87;;;11.27;;
12925;SDS011;6529;50.566;9.774;2022-11-20T05:28:28;19.23;;;11.33;;
12925;SDS011;6529;50.566;9.774;2022-11-20T05:30:54;19.43;;;11.20;;
12925;SDS011;6529;50.566;9.774;2022-11-20T05:33:20;18.97;;;10.37;;
12925;SDS011;6529;50.566;9.774;2022-11-20T05:35:46;19.67;;;10.73;;
12925;SDS011;6529;50.566;9.774;2022-11-20T05:38:12;20.60;;;11.50;;
12925;SDS011;6529;50.566;9.774;2022-11-20T05:40:38;21.60;;;11.43;;
12925;SDS011;6529;50.566;9.774;2022-11-20T05:43:04;21.03;;;12.10;;
12925;SDS011;6529;50.566;9.774;2022-11-20T05:45:29;20.07;;;11.40;;
12925;SDS011;6529;50.566;9.774;2022-11-20T05:47:58;19.87;;;11.70;;
12925;SDS011;6529;50.566;9.774;2022-11-20T05:50:25;19.80;;;11.20;;
12925;SDS011;6529;50.566;9.774;2022-11-20T05:52:51;20.83;;;11.40;;
12925;SDS011;6529;50.566;9.774;2022-11-20T05:55:17;21.60;;;11.73;;
12925;SDS011;6529;50.566;9.774;2022-11-20T05:57:42;20.37;;;11.67;;
12925;SDS011;6529;50.566;9.774;2022-11-20T06:00:08;21.00;;;11.20;;
12925;SDS011;6529;50.566;9.774;2022-11-20T06:02:34;20.53;;;11.27;;
12925;SDS011;6529;50.566;9.774;2022-11-20T06:05:00;20.17;;;11.77;;
12925;SDS011;6529;50.566;9.774;2022-11-20T06:07:26;20.80;;;11.17;;
12925;SDS011;6529;50.566;9.774;2022-11-20T06:09:52;18.03;;;10.03;;
12925;SDS011;6529;50.566;9.774;2022-11-20T06:12:17;20.33;;;11.63;;
12925;SDS011;6529;50.566;9.774;2022-11-20T06:14:43;18.20;;;10.27;;
12925;SDS011;6529;50.566;9.774;2022-11-20T06:17:08;20.00;;;10.77;;
12925;SDS011;6529;50.566;9.774;2022-11-20T06:19:34;21.07;;;11.00;;
12925;SDS011;6529;50.566;9.774;2022-11-20T06:21:59;21.90;;;11.43;;
12925;SDS011;6529;50.566;9.774;2022-11-20T06:24:25;20.63;;;11.43;;
12925;SDS011;6529;50.566;9.774;2022-11-20T06:26:50;20.23;;;11.33;;
12925;SDS011;6529;50.566;9.774;2022-11-20T06:29:16;20.43;;;11.70;;
12925;SDS011;6529;50.566;9.774;2022-11-20T06:31:42;21.50;;;11.53;;
12925;SDS011;6529;50.566;9.774;2022-11-20T06:34:07;21.37;;;12.17;;
12925;SDS011;6529;50.566;9.774;2022-11-20T06:36:33;21.17;;;11.27;;
12925;SDS011;6529;50.566;9.774;2022-11-20T06:38:59;18.10;;;9.97;;
12925;SDS011;6529;50.566;9.774;2022-11-20T06:41:25;22.90;;;11.70;;
12925;SDS011;6529;50.566;9.774;2022-11-20T06:43:51;22.50;;;12.97;;
12925;SDS011;6529;50.566;9.774;2022-11-20T06:46:18;22.50;;;12.10;;
12925;SDS011;6529;50.566;9.774;2022-11-20T06:48:44;19.97;;;10.80;;
12925;SDS011;6529;50.566;9.774;2022-11-20T06:51:12;18.90;;;11.47;;
12925;SDS011;6529;50.566;9.774;2022-11-20T06:53:38;17.60;;;10.77;;
12925;SDS011;6529;50.566;9.774;2022-11-20T06:56:04;21.67;;;12.13;;
12925;SDS011;6529;50.566;9.774;2022-11-20T06:58:31;20.50;;;11.90;;
12925;SDS011;6529;50.566;9.774;2022-11-20T07:01:01;18.40;;;10.93;;
12925;SDS011;6529;50.566;9.774;2022-11-20T07:03:28;19.83;;;11.37;;
12925;SDS011;6529;50.566;9.774;2022-11-20T07:05:55;19.33;;;11.83;;
12925;SDS011;6529;50.566;9.774;2022-11-20T07:08:21;20.53;;;11.37;;
12925;SDS011;6529;50.566;9.774;2022-11-20T07:10:47;21.70;;;12.20;;
12925;SDS011;6529;50.566;9.774;2022-11-20T07:13:12;20.57;;;11.90;;
12925;SDS011;6529;50.566;9.774;2022-11-20T07:15:39;19.97;;;12.13;;
12925;SDS011;6529;50.566;9.774;2022-11-20T07:18:04;20.20;;;11.83;;
12925;SDS011;6529;50.566;9.774;2022-11-20T07:20:30;19.97;;;12.13;;
12925;SDS011;6529;50.566;9.774;2022-11-20T07:22:56;19.03;;;11.03;;
12925;SDS011;6529;50.566;9.774;2022-11-20T07:25:22;19.83;;;11.47;;
12925;SDS011;6529;50.566;9.774;2022-11-20T07:27:49;19.13;;;11.03;;
12925;SDS011;6529;50.566;9.774;2022-11-20T07:30:15;19.93;;;11.73;;
12925;SDS011;6529;50.566;9.774;2022-11-20T07:32:41;19.40;;;10.77;;
12925;SDS011;6529;50.566;9.774;2022-11-20T07:35:07;18.40;;;11.10;;
12925;SDS011;6529;50.566;9.774;2022-11-20T07:37:36;18.97;;;10.93;;
12925;SDS011;6529;50.566;9.774;2022-11-20T07:40:01;21.37;;;11.47;;
12925;SDS011;6529;50.566;9.774;2022-11-20T07:42:27;24.40;;;12.17;;
12925;SDS011;6529;50.566;9.774;2022-11-20T07:44:53;18.57;;;11.10;;
12925;SDS011;6529;50.566;9.774;2022-11-20T07:47:18;22.43;;;11.50;;
12925;SDS011;6529;50.566;9.774;2022-11-20T07:49:44;21.63;;;12.20;;
12925;SDS011;6529;50.566;9.774;2022-11-20T07:52:09;21.40;;;12.50;;
12925;SDS011;6529;50.566;9.774;2022-11-20T07:54:35;21.23;;;12.13;;
12925;SDS011;6529;50.566;9.774;2022-11-20T07:57:01;20.57;;;12.07;;
12925;SDS011;6529;50.566;9.774;2022-11-20T07:59:26;21.73;;;12.00;;
12925;SDS011;6529;50.566;9.774;2022-11-20T08:01:52;21.20;;;12.27;;
12925;SDS011;6529;50.566;9.774;2022-11-20T08:04:17;22.30;;;12.27;;
12925;SDS011;6529;50.566;9.774;2022-11-20T08:06:43;21.30;;;11.37;;
12925;SDS011;6529;50.566;9.774;2022-11-20T08:09:08;20.50;;;11.73;;
12925;SDS011;6529;50.566;9.774;2022-11-20T08:11:34;20.13;;;10.90;;
12925;SDS011;6529;50.566;9.774;2022-11-20T08:14:32;21.57;;;12.10;;
12925;SDS011;6529;50.566;9.774;2022-11-20T08:16:57;19.70;;;10.90;;
12925;SDS011;6529;50.566;9.774;2022-11-20T08:19:24;20.47;;;11.63;;
12925;SDS011;6529;50.566;9.774;2022-11-20T08:21:49;22.10;;;11.73;;
12925;SDS011;6529;50.566;9.774;2022-11-20T08:24:15;20.30;;;11.33;;
12925;SDS011;6529;50.566;9.774;2022-11-20T08:26:40;22.93;;;12.10;;
12925;SDS011;6529;50.566;9.774;2022-11-20T08:29:06;21.90;;;12.23;;
12925;SDS011;6529;50.566;9.774;2022-11-20T08:31:32;20.83;;;11.50;;
12925;SDS011;6529;50.566;9.774;2022-11-20T08:33:58;19.00;;;11.33;;
12925;SDS011;6529;50.566;9.774;2022-11-20T08:36:23;24.47;;;12.07;;
12925;SDS011;6529;50.566;9.774;2022-11-20T08:38:50;22.10;;;11.63;;
12925;SDS011;6529;50.566;9.774;2022-11-20T08:41:17;22.70;;;12.33;;
12925;SDS011;6529;50.566;9.774;2022-11-20T08:43:48;24.57;;;13.07;;
12925;SDS011;6529;50.566;9.774;2022-11-20T08:46:21;21.87;;;12.13;;
12925;SDS011;6529;50.566;9.774;2022-11-20T08:48:48;25.40;;;13.63;;
12925;SDS011;6529;50.566;9.774;2022-11-20T08:51:14;23.03;;;12.93;;
12925;SDS011;6529;50.566;9.774;2022-11-20T08:53:40;23.77;;;12.83;;
12925;SDS011;6529;50.566;9.774;2022-11-20T08:56:05;24.63;;;14.27;;
12925;SDS011;6529;50.566;9.774;2022-11-20T08:58:31;23.90;;;12.57;;
12925;SDS011;6529;50.566;9.774;2022-11-20T09:00:57;22.97;;;12.93;;
12925;SDS011;6529;50.566;9.774;2022-11-20T09:03:22;25.27;;;13.40;;
12925;SDS011;6529;50.566;9.774;2022-11-20T09:05:48;25.63;;;12.87;;
12925;SDS011;6529;50.566;9.774;2022-11-20T09:08:14;25.30;;;13.73;;
12925;SDS011;6529;50.566;9.774;2022-11-20T09:10:40;25.37;;;13.77;;
12925;SDS011;6529;50.566;9.774;2022-11-20T09:13:05;27.13;;;14.47;;
12925;SDS011;6529;50.566;9.774;2022-11-20T09:15:32;25.87;;;14.30;;
12925;SDS011;6529;50.566;9.774;2022-11-20T09:17:59;27.40;;;14.97;;
12925;SDS011;6529;50.566;9.774;2022-11-20T09:20:27;23.10;;;12.70;;
12925;SDS011;6529;50.566;9.774;2022-11-20T09:22:53;22.47;;;12.53;;
12925;SDS011;6529;50.566;9.774;2022-11-20T09:25:19;25.67;;;13.77;;
12925;SDS011;6529;50.566;9.774;2022-11-20T09:27:45;24.03;;;12.20;;
12925;SDS011;6529;50.566;9.774;2022-11-20T09:30:11;23.90;;;11.83;;
12925;SDS011;6529;50.566;9.774;2022-11-20T09:32:40;24.37;;;12.70;;
12925;SDS011;6529;50.566;9.774;2022-11-20T09:35:07;24.90;;;12.30;;
12925;SDS011;6529;50.566;9.774;2022-11-20T09:37:33;29.50;;;15.10;;
12925;SDS011;6529;50.566;9.774;2022-11-20T09:39:59;26.43;;;14.60;;
12925;SDS011;6529;50.566;9.774;2022-11-20T09:50:43;30.93;;;15.50;;
12925;SDS011;6529;50.566;9.774;2022-11-20T09:56:37;27.53;;;14.47;;
12925;SDS011;6529;50.566;9.774;2022-11-20T09:59:06;26.50;;;14.27;;
12925;SDS011;6529;50.566;9.774;2022-11-20T10:01:39;29.97;;;14.40;;
12925;SDS011;6529;50.566;9.774;2022-11-20T10:09:22;28.17;;;14.50;;
12925;SDS011;6529;50.566;9.774;2022-11-20T10:20:40;27.53;;;14.43;;
12925;SDS011;6529;50.566;9.774;2022-11-20T10:26:03;25.83;;;13.37;;
12925;SDS011;6529;50.566;9.774;2022-11-20T10:31:29;25.63;;;13.30;;
12925;SDS011;6529;50.566;9.774;2022-11-20T10:34:12;24.83;;;12.90;;
12925;SDS011;6529;50.566;9.774;2022-11-20T10:36:46;25.53;;;12.57;;
12925;SDS011;6529;50.566;9.774;2022-11-20T10:39:32;20.03;;;10.80;;
12925;SDS011;6529;50.566;9.774;2022-11-20T10:42:22;21.47;;;11.43;;
12925;SDS011;6529;50.566;9.774;2022-11-20T10:45:09;22.37;;;11.87;;
12925;SDS011;6529;50.566;9.774;2022-11-20T10:47:59;20.67;;;11.93;;
12925;SDS011;6529;50.566;9.774;2022-11-20T10:50:35;20.40;;;11.83;;
12925;SDS011;6529;50.566;9.774;2022-11-20T10:53:05;20.97;;;11.53;;
12925;SDS011;6529;50.566;9.774;2022-11-20T11:01:03;19.43;;;10.33;;
12925;SDS011;6529;50.566;9.774;2022-11-20T11:03:30;20.63;;;10.50;;
12925;SDS011;6529;50.566;9.774;2022-11-20T11:05:59;21.63;;;11.83;;
12925;SDS011;6529;50.566;9.774;2022-11-20T11:08:36;18.77;;;10.37;;
12925;SDS011;6529;50.566;9.774;2022-11-20T11:14:11;16.57;;;9.30;;
12925;SDS011;6529;50.566;9.774;2022-11-20T11:16:48;17.47;;;9.80;;
12925;SDS011;6529;50.566;9.774;2022-11-20T11:19:15;17.33;;;9.77;;
12925;SDS011;6529;50.566;9.774;2022-11-20T11:21:48;22.30;;;11.00;;
12925;SDS011;6529;50.566;9.774;2022-11-20T11:24:23;17.80;;;9.17;;
12925;SDS011;6529;50.566;9.774;2022-11-20T11:29:23;19.27;;;10.37;;
12925;SDS011;6529;50.566;9.774;2022-11-20T11:32:02;17.80;;;8.87;;
12925;SDS011;6529;50.566;9.774;2022-11-20T11:34:29;17.30;;;9.80;;
12925;SDS011;6529;50.566;9.774;2022-11-20T11:36:58;19.50;;;9.77;;
12925;SDS011;6529;50.566;9.774;2022-11-20T11:39:26;17.27;;;9.37;;
12925;SDS011;6529;50.566;9.774;2022-11-20T11:41:53;17.17;;;9.13;;
12925;SDS011;6529;50.566;9.774;2022-11-20T11:44:32;16.73;;;9.13;;
12925;SDS011;6529;50.566;9.774;2022-11-20T11:47:25;15.20;;;8.60;;
12925;SDS011;6529;50.566;9.774;2022-11-20T11:52:45;16.17;;;8.47;;
12925;SDS011;6529;50.566;9.774;2022-11-20T11:55:25;15.40;;;8.80;;
12925;SDS011;6529;50.566;9.774;2022-11-20T11:57:57;15.73;;;9.00;;
12925;SDS011;6529;50.566;9.774;2022-11-20T12:00:57;14.27;;;8.90;;
12925;SDS011;6529;50.566;9.774;2022-11-20T12:03:37;15.83;;;8.77;;
12925;SDS011;6529;50.566;9.774;2022-11-20T12:06:09;15.33;;;8.53;;
12925;SDS011;6529;50.566;9.774;2022-11-20T12:11:13;13.33;;;8.10;;
12925;SDS011;6529;50.566;9.774;2022-11-20T12:13:49;12.63;;;7.43;;
12925;SDS011;6529;50.566;9.774;2022-11-20T12:16:20;14.67;;;8.63;;
12925;SDS011;6529;50.566;9.774;2022-11-20T12:18:48;14.13;;;8.00;;
12925;SDS011;6529;50.566;9.774;2022-11-20T12:21:40;13.20;;;8.30;;
12925;SDS011;6529;50.566;9.774;2022-11-20T12:30:14;13.20;;;6.97;;
12925;SDS011;6529;50.566;9.774;2022-11-20T12:35:48;12.17;;;6.77;;
12925;SDS011;6529;50.566;9.774;2022-11-20T12:50:13;10.43;;;5.90;;
12925;SDS011;6529;50.566;9.774;2022-11-20T12:56:05;11.93;;;6.37;;
12925;SDS011;6529;50.566;9.774;2022-11-20T12:59:02;11.57;;;7.10;;
12925;SDS011;6529;50.566;9.774;2022-11-20T13:01:48;11.80;;;6.70;;
12925;SDS011;6529;50.566;9.774;2022-11-20T13:07:14;11.83;;;7.00;;
12925;SDS011;6529;50.566;9.774;2022-11-20T13:09:46;10.20;;;6.63;;
12925;SDS011;6529;50.566;9.774;2022-11-20T13:12:15;10.17;;;6.97;;
12925;SDS011;6529;50.566;9.774;2022-11-20T13:18:03;11.17;;;6.47;;
12925;SDS011;6529;50.566;9.774;2022-11-20T13:20:33;12.00;;;7.20;;
12925;SDS011;6529;50.566;9.774;2022-11-20T13:23:00;11.17;;;6.57;;
12925;SDS011;6529;50.566;9.774;2022-11-20T13:27:51;10.10;;;6.83;;
12925;SDS011;6529;50.566;9.774;2022-11-20T13:30:19;11.67;;;6.47;;
12925;SDS011;6529;50.566;9.774;2022-11-20T13:33:01;11.07;;;6.53;;
12925;SDS011;6529;50.566;9.774;2022-11-20T13:35:37;11.33;;;6.57;;
12925;SDS011;6529;50.566;9.774;2022-11-20T13:38:08;9.80;;;6.10;;
12925;SDS011;6529;50.566;9.774;2022-11-20T13:40:49;11.40;;;6.50;;
12925;SDS011;6529;50.566;9.774;2022-11-20T13:45:57;9.80;;;6.20;;
12925;SDS011;6529;50.566;9.774;2022-11-20T13:48:26;9.93;;;5.53;;
12925;SDS011;6529;50.566;9.774;2022-11-20T13:51:41;8.93;;;5.93;;
12925;SDS011;6529;50.566;9.774;2022-11-20T13:59:31;8.70;;;5.43;;
12925;SDS011;6529;50.566;9.774;2022-11-20T14:02:00;9.07;;;5.30;;
12925;SDS011;6529;50.566;9.774;2022-11-20T14:04:28;8.87;;;5.80;;
12925;SDS011;6529;50.566;9.774;2022-11-20T14:06:57;9.37;;;6.20;;
12925;SDS011;6529;50.566;9.774;2022-11-20T14:09:27;13.30;;;8.20;;
12925;SDS011;6529;50.566;9.774;2022-11-20T14:11:54;9.40;;;6.60;;
12925;SDS011;6529;50.566;9.774;2022-11-20T14:14:21;11.30;;;7.73;;
12925;SDS011;6529;50.566;9.774;2022-11-20T14:17:07;11.13;;;7.37;;
12925;SDS011;6529;50.566;9.774;2022-11-20T14:19:41;9.90;;;6.27;;
12925;SDS011;6529;50.566;9.774;2022-11-20T14:22:19;10.93;;;6.83;;
12925;SDS011;6529;50.566;9.774;2022-11-20T14:25:03;12.17;;;7.53;;
12925;SDS011;6529;50.566;9.774;2022-11-20T14:27:32;11.43;;;7.10;;
12925;SDS011;6529;50.566;9.774;2022-11-20T14:30:00;10.13;;;6.93;;
12925;SDS011;6529;50.566;9.774;2022-11-20T14:32:27;11.43;;;7.20;;
12925;SDS011;6529;50.566;9.774;2022-11-20T14:34:54;10.80;;;7.10;;
12925;SDS011;6529;50.566;9.774;2022-11-20T14:37:25;9.50;;;6.30;;
12925;SDS011;6529;50.566;9.774;2022-11-20T14:39:54;10.10;;;6.90;;
12925;SDS011;6529;50.566;9.774;2022-11-20T14:42:24;10.67;;;6.97;;
12925;SDS011;6529;50.566;9.774;2022-11-20T14:44:52;12.10;;;7.20;;
12925;SDS011;6529;50.566;9.774;2022-11-20T14:47:21;8.40;;;6.20;;
12925;SDS011;6529;50.566;9.774;2022-11-20T14:49:50;10.13;;;6.43;;
12925;SDS011;6529;50.566;9.774;2022-11-20T14:52:26;10.60;;;6.73;;
12925;SDS011;6529;50.566;9.774;2022-11-20T14:54:53;10.20;;;6.73;;
12925;SDS011;6529;50.566;9.774;2022-11-20T14:57:30;10.20;;;6.90;;
12925;SDS011;6529;50.566;9.774;2022-11-20T15:02:29;10.23;;;6.33;;
12925;SDS011;6529;50.566;9.774;2022-11-20T15:04:59;10.87;;;6.87;;
12925;SDS011;6529;50.566;9.774;2022-11-20T15:07:35;11.03;;;6.93;;
12925;SDS011;6529;50.566;9.774;2022-11-20T15:12:30;11.57;;;7.30;;
12925;SDS011;6529;50.566;9.774;2022-11-20T15:14:57;12.60;;;7.07;;
12925;SDS011;6529;50.566;9.774;2022-11-20T15:17:23;11.33;;;7.63;;
12925;SDS011;6529;50.566;9.774;2022-11-20T15:19:49;13.37;;;8.20;;
12925;SDS011;6529;50.566;9.774;2022-11-20T15:22:16;14.07;;;8.10;;
12925;SDS011;6529;50.566;9.774;2022-11-20T15:24:41;10.20;;;6.97;;
12925;SDS011;6529;50.566;9.774;2022-11-20T15:27:07;13.63;;;7.37;;
12925;SDS011;6529;50.566;9.774;2022-11-20T15:29:34;10.13;;;6.93;;
12925;SDS011;6529;50.566;9.774;2022-11-20T15:32:00;13.07;;;6.93;;
12925;SDS011;6529;50.566;9.774;2022-11-20T15:34:26;11.50;;;6.97;;
12925;SDS011;6529;50.566;9.774;2022-11-20T15:36:52;12.50;;;7.47;;
12925;SDS011;6529;50.566;9.774;2022-11-20T15:39:19;11.80;;;7.53;;
12925;SDS011;6529;50.566;9.774;2022-11-20T15:41:44;12.97;;;8.03;;
12925;SDS011;6529;50.566;9.774;2022-11-20T15:44:10;18.97;;;11.27;;
12925;SDS011;6529;50.566;9.774;2022-11-20T15:46:37;13.57;;;8.80;;
12925;SDS011;6529;50.566;9.774;2022-11-20T15:49:09;14.40;;;8.23;;
12925;SDS011;6529;50.566;9.774;2022-11-20T15:51:38;13.53;;;9.27;;
12925;SDS011;6529;50.566;9.774;2022-11-20T15:54:10;16.53;;;10.07;;
12925;SDS011;6529;50.566;9.774;2022-11-20T15:56:45;16.67;;;9.40;;
12925;SDS011;6529;50.566;9.774;2022-11-20T15:59:14;15.17;;;9.50;;
12925;SDS011;6529;50.566;9.774;2022-11-20T16:01:40;18.67;;;10.43;;
12925;SDS011;6529;50.566;9.774;2022-11-20T16:04:13;18.00;;;11.00;;
12925;SDS011;6529;50.566;9.774;2022-11-20T16:06:40;17.60;;;10.90;;
12925;SDS011;6529;50.566;9.774;2022-11-20T16:09:06;17.03;;;9.93;;
12925;SDS011;6529;50.566;9.774;2022-11-20T16:11:32;16.53;;;10.10;;
12925;SDS011;6529;50.566;9.774;2022-11-20T16:14:00;16.93;;;9.97;;
12925;SDS011;6529;50.566;9.774;2022-11-20T16:16:44;16.33;;;10.20;;
12925;SDS011;6529;50.566;9.774;2022-11-20T16:19:10;17.30;;;9.87;;
12925;SDS011;6529;50.566;9.774;2022-11-20T16:21:37;17.67;;;10.33;;
12925;SDS011;6529;50.566;9.774;2022-11-20T16:24:05;15.77;;;9.97;;
12925;SDS011;6529;50.566;9.774;2022-11-20T16:26:35;15.70;;;9.83;;
12925;SDS011;6529;50.566;9.774;2022-11-20T16:29:02;16.43;;;10.17;;
12925;SDS011;6529;50.566;9.774;2022-11-20T16:31:31;15.63;;;9.63;;
12925;SDS011;6529;50.566;9.774;2022-11-20T16:33:58;19.13;;;13.35;;
12925;SDS011;6529;50.566;9.774;2022-11-20T16:36:26;14.80;;;10.10;;
12925;SDS011;6529;50.566;9.774;2022-11-20T16:39:02;17.00;;;10.57;;